createdAt,value
2022-10-22T00:00:01.567Z,6.70
2022-10-22T00:01:01.529Z,4.60
2022-10-22T00:02:01.545Z,4.90
2022-10-22T00:03:01.537Z,5.60
2022-10-22T00:04:01.419Z,5.20
2022-10-22T00:05:01.370Z,6.90
2022-10-22T00:06:01.318Z,6.70
2022-10-22T00:07:01.274Z,4.20
2022-10-22T00:08:01.340Z,5.40
2022-10-22T00:09:01.279Z,6.70
2022-10-22T00:10:01.197Z,5.30
2022-10-22T00:11:01.106Z,4.40
2022-10-22T00:12:01.056Z,4.50
2022-10-22T00:13:01.059Z,6.00
2022-10-22T00:14:00.985Z,4.10
2022-10-22T00:15:00.933Z,9.10
2022-10-22T00:16:00.899Z,5.60
2022-10-22T00:17:00.836Z,5.90
2022-10-22T00:18:00.797Z,5.00
2022-10-22T00:19:00.784Z,5.40
2022-10-22T00:20:00.727Z,3.60
2022-10-22T00:21:00.664Z,5.60
2022-10-22T00:22:00.629Z,5.20
2022-10-22T00:23:00.584Z,5.20
2022-10-22T00:24:00.524Z,4.10
2022-10-22T00:25:00.490Z,4.00
2022-10-22T00:26:00.430Z,3.90
2022-10-22T00:27:00.397Z,5.10
2022-10-22T00:28:00.368Z,7.20
2022-10-22T00:29:00.311Z,4.10
2022-10-22T00:30:00.271Z,5.20
2022-10-22T00:31:00.254Z,4.00
2022-10-22T00:32:00.176Z,4.30
2022-10-22T00:33:00.127Z,4.30
2022-10-22T00:34:00.106Z,3.80
2022-10-22T00:35:00.078Z,3.60
2022-10-22T00:36:00.013Z,4.30
2022-10-22T00:37:08.121Z,5.00
2022-10-22T00:37:59.937Z,3.20
2022-10-22T00:38:59.900Z,4.60
2022-10-22T00:39:59.866Z,3.70
2022-10-22T00:41:59.789Z,4.60
2022-10-22T00:42:59.786Z,3.20
2022-10-22T00:43:59.676Z,4.00
2022-10-22T00:44:59.667Z,3.50
2022-10-22T00:45:59.615Z,5.10
2022-10-22T00:46:59.563Z,3.40
2022-10-22T00:47:59.598Z,4.20
2022-10-22T00:48:59.504Z,3.40
2022-10-22T00:49:59.500Z,3.60
2022-10-22T00:50:59.381Z,4.70
2022-10-22T00:51:59.349Z,4.50
2022-10-22T00:52:59.295Z,3.10
2022-10-22T00:53:59.257Z,3.70
2022-10-22T00:54:59.220Z,3.30
2022-10-22T00:55:59.168Z,4.40
2022-10-22T00:56:59.129Z,3.00
2022-10-22T00:57:59.529Z,4.60
2022-10-22T00:58:59.119Z,4.10
2022-10-22T00:59:59.003Z,4.70
2022-10-22T01:00:59.033Z,3.70
2022-10-22T01:01:58.915Z,5.70
2022-10-22T01:02:58.872Z,3.30
2022-10-22T01:03:58.807Z,2.90
2022-10-22T01:04:58.769Z,3.50
2022-10-22T01:05:58.733Z,3.40
2022-10-22T01:06:59.168Z,3.10
2022-10-22T01:07:58.712Z,3.10
2022-10-22T01:08:58.605Z,2.20
2022-10-22T01:09:58.553Z,3.10
2022-10-22T01:10:58.489Z,3.00
2022-10-22T01:11:58.449Z,3.20
2022-10-22T01:12:58.393Z,3.80
2022-10-22T01:13:58.368Z,3.90
2022-10-22T01:14:58.320Z,4.30
2022-10-22T01:15:58.249Z,3.30
2022-10-22T01:16:58.220Z,3.00
2022-10-22T01:17:58.162Z,2.40
2022-10-22T01:18:58.112Z,2.70
2022-10-22T01:19:58.075Z,4.70
2022-10-22T01:20:58.031Z,3.80
2022-10-22T01:21:57.981Z,3.60
2022-10-22T01:22:57.931Z,4.80
2022-10-22T01:23:57.891Z,3.90
2022-10-22T01:24:57.835Z,2.40
2022-10-22T01:25:57.800Z,3.50
2022-10-22T01:26:57.765Z,2.80
2022-10-22T01:27:58.175Z,2.50
2022-10-22T01:28:57.695Z,3.10
2022-10-22T01:29:57.627Z,2.20
2022-10-22T01:30:57.586Z,2.70
2022-10-22T01:31:57.545Z,2.30
2022-10-22T01:32:57.505Z,4.50
2022-10-22T01:33:57.466Z,2.80
2022-10-22T01:34:57.415Z,3.20
2022-10-22T01:35:57.352Z,3.50
2022-10-22T01:36:57.322Z,3.40
2022-10-22T01:37:57.284Z,2.90
2022-10-22T01:38:57.818Z,3.00
2022-10-22T01:39:57.187Z,2.60
2022-10-22T01:40:57.168Z,2.70
2022-10-22T01:41:57.110Z,3.40
2022-10-22T01:42:57.067Z,2.70
2022-10-22T01:43:57.041Z,2.80
2022-10-22T01:44:57.010Z,3.50
2022-10-22T01:45:56.959Z,3.00
2022-10-22T01:46:56.920Z,2.50
2022-10-22T01:47:56.865Z,3.10
2022-10-22T01:48:56.832Z,4.60
2022-10-22T01:49:57.271Z,2.90
2022-10-22T01:50:56.728Z,2.70
2022-10-22T01:51:56.694Z,2.60
2022-10-22T01:52:56.643Z,3.60
2022-10-22T01:53:56.608Z,2.40
2022-10-22T01:54:56.565Z,3.10
2022-10-22T01:55:56.526Z,2.30
2022-10-22T01:56:56.479Z,3.40
2022-10-22T01:57:56.423Z,2.70
2022-10-22T01:58:56.387Z,3.00
2022-10-22T01:59:56.361Z,3.30
2022-10-22T02:00:56.408Z,2.40
2022-10-22T02:01:56.262Z,2.60
2022-10-22T02:02:56.240Z,2.50
2022-10-22T02:03:56.196Z,2.30
2022-10-22T02:04:56.164Z,2.00
2022-10-22T02:05:56.102Z,3.30
2022-10-22T02:06:56.105Z,3.20
2022-10-22T02:07:56.030Z,3.50
2022-10-22T02:08:56.079Z,2.80
2022-10-22T02:09:55.923Z,2.90
2022-10-22T02:10:56.145Z,2.30
2022-10-22T02:11:55.928Z,3.40
2022-10-22T02:12:55.809Z,2.50
2022-10-22T02:13:55.775Z,3.10
2022-10-22T02:14:55.739Z,2.30
2022-10-22T02:15:55.692Z,2.60
2022-10-22T02:16:55.660Z,3.30
2022-10-22T02:17:55.603Z,3.50
2022-10-22T02:18:55.568Z,4.30
2022-10-22T02:19:55.536Z,2.10
2022-10-22T02:20:55.973Z,2.40
2022-10-22T02:21:55.453Z,3.30
2022-10-22T02:22:55.419Z,2.30
2022-10-22T02:23:55.362Z,2.00
2022-10-22T02:24:55.318Z,2.40
2022-10-22T02:25:55.281Z,3.20
2022-10-22T02:26:55.250Z,3.40
2022-10-22T02:27:55.181Z,2.10
2022-10-22T02:28:55.159Z,3.50
2022-10-22T02:29:55.103Z,2.10
2022-10-22T02:30:55.055Z,2.40
2022-10-22T02:31:55.448Z,2.70
2022-10-22T02:32:54.976Z,2.20
2022-10-22T02:33:55.580Z,5.00
2022-10-22T02:34:54.897Z,3.80
2022-10-22T02:35:54.839Z,2.60
2022-10-22T02:36:54.842Z,2.20
2022-10-22T02:37:54.754Z,2.40
2022-10-22T02:38:54.731Z,2.00
2022-10-22T02:39:54.679Z,2.00
2022-10-22T02:40:54.640Z,2.50
2022-10-22T02:41:54.574Z,2.40
2022-10-22T02:42:54.537Z,2.30
2022-10-22T02:43:54.497Z,2.70
2022-10-22T02:44:54.460Z,2.50
2022-10-22T02:45:54.405Z,2.10
2022-10-22T02:46:54.378Z,2.30
2022-10-22T02:48:15.338Z,2.40
2022-10-22T02:48:54.286Z,2.30
2022-10-22T02:49:54.214Z,1.80
2022-10-22T02:50:54.181Z,1.60
2022-10-22T02:51:54.149Z,1.90
2022-10-22T02:52:54.098Z,3.00
2022-10-22T02:53:54.054Z,2.00
2022-10-22T02:54:54.025Z,1.90
2022-10-22T02:55:53.960Z,2.10
2022-10-22T02:56:53.938Z,1.70
2022-10-22T02:57:53.901Z,2.70
2022-10-22T02:58:53.850Z,2.50
2022-10-22T02:59:53.831Z,2.00
2022-10-22T03:00:53.838Z,2.70
2022-10-22T03:01:53.740Z,2.20
2022-10-22T03:02:53.707Z,2.90
2022-10-22T03:03:53.639Z,1.60
2022-10-22T03:04:53.622Z,2.10
2022-10-22T03:05:53.563Z,2.50
2022-10-22T03:06:55.588Z,1.80
2022-10-22T03:07:53.493Z,1.90
2022-10-22T03:08:53.468Z,2.00
2022-10-22T03:09:53.405Z,1.70
2022-10-22T03:10:53.368Z,2.70
2022-10-22T03:11:53.332Z,1.90
2022-10-22T03:12:53.275Z,1.50
2022-10-22T03:13:53.239Z,1.40
2022-10-22T03:14:53.210Z,2.30
2022-10-22T03:15:53.150Z,2.00
2022-10-22T03:16:53.173Z,2.20
2022-10-22T03:17:53.084Z,2.20
2022-10-22T03:18:53.034Z,1.50
2022-10-22T03:19:53.001Z,1.90
2022-10-22T03:20:52.955Z,2.00
2022-10-22T03:21:52.923Z,2.10
2022-10-22T03:22:52.891Z,2.00
2022-10-22T03:23:52.825Z,1.90
2022-10-22T03:24:52.807Z,2.10
2022-10-22T03:25:52.778Z,4.80
2022-10-22T03:26:52.706Z,2.60
2022-10-22T03:27:52.691Z,1.90
2022-10-22T03:28:52.663Z,1.80
2022-10-22T03:29:52.584Z,1.90
2022-10-22T03:30:52.541Z,2.30
2022-10-22T03:31:52.512Z,2.00
2022-10-22T03:32:52.463Z,3.90
2022-10-22T03:33:52.454Z,4.60
2022-10-22T03:34:52.465Z,5.90
2022-10-22T03:35:52.343Z,2.00
2022-10-22T03:36:52.316Z,1.70
2022-10-22T03:37:52.221Z,2.40
2022-10-22T03:38:52.162Z,2.20
2022-10-22T03:39:52.123Z,1.50
2022-10-22T03:40:52.080Z,1.70
2022-10-22T03:41:52.066Z,1.80
2022-10-22T03:42:52.004Z,2.40
2022-10-22T03:43:51.937Z,2.40
2022-10-22T03:44:51.897Z,2.10
2022-10-22T03:45:51.866Z,1.30
2022-10-22T03:46:51.856Z,2.60
2022-10-22T03:47:51.768Z,1.30
2022-10-22T03:48:51.742Z,2.10
2022-10-22T03:49:51.669Z,2.30
2022-10-22T03:50:51.627Z,1.30
2022-10-22T03:51:51.587Z,2.00
2022-10-22T03:52:51.541Z,1.50
2022-10-22T03:53:51.502Z,1.50
2022-10-22T03:54:51.469Z,1.80
2022-10-22T03:55:51.398Z,1.60
2022-10-22T03:56:51.523Z,4.20
2022-10-22T03:57:51.305Z,2.00
2022-10-22T03:58:51.269Z,1.40
2022-10-22T03:59:51.254Z,1.60
2022-10-22T04:00:51.262Z,1.80
2022-10-22T04:01:51.135Z,1.40
2022-10-22T04:02:51.095Z,1.60
2022-10-22T04:03:51.027Z,1.80
2022-10-22T04:04:51.003Z,1.90
2022-10-22T04:05:50.930Z,1.30
2022-10-22T04:06:50.870Z,1.70
2022-10-22T04:07:50.828Z,1.40
2022-10-22T04:08:50.822Z,1.70
2022-10-22T04:09:50.748Z,1.80
2022-10-22T04:10:50.720Z,1.50
2022-10-22T04:11:50.644Z,2.00
2022-10-22T04:12:50.620Z,2.20
2022-10-22T04:13:50.549Z,1.60
2022-10-22T04:14:50.506Z,1.80
2022-10-22T04:15:50.472Z,1.40
2022-10-22T04:16:50.436Z,1.40
2022-10-22T04:17:50.359Z,1.20
2022-10-22T04:18:50.334Z,1.20
2022-10-22T04:19:50.285Z,1.60
2022-10-22T04:20:50.245Z,2.00
2022-10-22T04:21:50.197Z,1.30
2022-10-22T04:22:50.163Z,1.80
2022-10-22T04:23:50.088Z,1.50
2022-10-22T04:25:49.999Z,2.40
2022-10-22T04:26:50.626Z,2.10
2022-10-22T04:27:49.930Z,1.30
2022-10-22T04:28:49.873Z,1.10
2022-10-22T04:29:49.835Z,1.40
2022-10-22T04:30:49.807Z,1.20
2022-10-22T04:31:49.769Z,1.40
2022-10-22T04:32:49.690Z,1.50
2022-10-22T04:33:49.657Z,1.90
2022-10-22T04:34:49.623Z,2.00
2022-10-22T04:35:49.565Z,2.00
2022-10-22T04:36:49.532Z,1.10
2022-10-22T04:37:49.472Z,1.80
2022-10-22T04:38:49.448Z,1.00
2022-10-22T04:39:49.413Z,1.90
2022-10-22T04:40:50.024Z,1.40
2022-10-22T04:41:49.329Z,1.90
2022-10-22T04:42:49.301Z,1.40
2022-10-22T04:43:49.234Z,1.20
2022-10-22T04:44:49.209Z,1.30
2022-10-22T04:45:49.179Z,2.10
2022-10-22T04:46:49.119Z,1.40
2022-10-22T04:47:49.059Z,1.20
2022-10-22T04:48:49.044Z,1.10
2022-10-22T04:49:48.980Z,1.70
2022-10-22T04:50:48.940Z,1.90
2022-10-22T04:51:48.903Z,2.00
2022-10-22T04:52:48.851Z,1.40
2022-10-22T04:53:48.811Z,2.10
2022-10-22T04:54:48.777Z,2.00
2022-10-22T04:55:48.723Z,1.20
2022-10-22T04:56:48.682Z,1.40
2022-10-22T04:57:48.628Z,1.70
2022-10-22T04:58:48.603Z,1.10
2022-10-22T04:59:48.828Z,1.80
2022-10-22T05:00:48.570Z,1.50
2022-10-22T05:01:48.467Z,1.10
2022-10-22T05:02:48.431Z,1.20
2022-10-22T05:03:48.399Z,1.40
2022-10-22T05:04:48.313Z,1.30
2022-10-22T05:05:48.295Z,1.30
2022-10-22T05:06:48.247Z,1.40
2022-10-22T05:07:48.219Z,1.30
2022-10-22T05:08:48.241Z,1.10
2022-10-22T05:09:48.107Z,1.80
2022-10-22T05:10:48.056Z,1.60
2022-10-22T05:11:48.034Z,1.50
2022-10-22T05:12:47.974Z,1.40
2022-10-22T05:13:47.953Z,1.50
2022-10-22T05:14:47.898Z,1.40
2022-10-22T05:15:47.847Z,1.70
2022-10-22T05:16:48.342Z,1.50
2022-10-22T05:17:47.764Z,1.20
2022-10-22T05:18:47.827Z,1.40
2022-10-22T05:19:47.696Z,1.30
2022-10-22T05:20:47.648Z,1.70
2022-10-22T05:21:47.596Z,1.20
2022-10-22T05:22:47.546Z,1.50
2022-10-22T05:23:47.521Z,1.60
2022-10-22T05:24:47.450Z,1.10
2022-10-22T05:25:47.417Z,1.10
2022-10-22T05:26:47.368Z,1.20
2022-10-22T05:27:47.319Z,1.40
2022-10-22T05:28:47.288Z,1.00
2022-10-22T05:29:47.982Z,1.50
2022-10-22T05:30:47.175Z,1.40
2022-10-22T05:31:47.165Z,1.60
2022-10-22T05:32:47.099Z,1.20
2022-10-22T05:33:47.078Z,4.10
2022-10-22T05:34:47.032Z,1.30
2022-10-22T05:35:47.069Z,2.50
2022-10-22T05:36:46.929Z,1.20
2022-10-22T05:37:46.933Z,1.80
2022-10-22T05:38:46.845Z,1.50
2022-10-22T05:39:46.802Z,1.50
2022-10-22T05:40:46.783Z,1.10
2022-10-22T05:41:46.722Z,1.30
2022-10-22T05:42:46.668Z,1.40
2022-10-22T05:43:46.644Z,1.50
2022-10-22T05:44:46.593Z,1.50
2022-10-22T05:45:46.565Z,1.50
2022-10-22T05:46:46.516Z,1.10
2022-10-22T05:47:46.461Z,1.50
2022-10-22T05:48:46.429Z,1.00
2022-10-22T05:49:46.380Z,1.50
2022-10-22T05:50:46.330Z,2.70
2022-10-22T05:51:46.282Z,1.20
2022-10-22T05:52:46.251Z,1.30
2022-10-22T05:53:46.192Z,2.50
2022-10-22T05:54:46.152Z,1.20
2022-10-22T05:55:46.126Z,1.20
2022-10-22T05:56:46.075Z,1.30
2022-10-22T05:57:46.043Z,2.80
2022-10-22T05:58:46.005Z,1.20
2022-10-22T05:59:45.948Z,1.20
2022-10-22T06:00:45.921Z,1.00
2022-10-22T06:01:46.305Z,1.60
2022-10-22T06:02:45.818Z,0.90
2022-10-22T06:03:45.764Z,1.60
2022-10-22T06:04:45.698Z,1.10
2022-10-22T06:05:45.673Z,1.10
2022-10-22T06:06:45.644Z,1.50
2022-10-22T06:07:45.594Z,1.90
2022-10-22T06:08:45.588Z,2.00
2022-10-22T06:09:45.782Z,1.30
2022-10-22T06:10:45.452Z,2.10
2022-10-22T06:11:45.423Z,1.40
2022-10-22T06:12:45.360Z,1.00
2022-10-22T06:13:45.344Z,1.00
2022-10-22T06:14:45.339Z,1.20
2022-10-22T06:15:45.236Z,1.40
2022-10-22T06:16:45.205Z,1.50
2022-10-22T06:17:45.135Z,1.70
2022-10-22T06:18:45.091Z,1.40
2022-10-22T06:19:45.070Z,1.20
2022-10-22T06:20:44.990Z,1.70
2022-10-22T06:21:44.990Z,1.30
2022-10-22T06:22:44.931Z,1.60
2022-10-22T06:23:44.895Z,1.50
2022-10-22T06:24:45.243Z,3.80
2022-10-22T06:25:45.103Z,1.20
2022-10-22T06:26:44.750Z,1.40
2022-10-22T06:27:44.716Z,1.30
2022-10-22T06:28:44.655Z,1.60
2022-10-22T06:29:44.595Z,2.50
2022-10-22T06:30:46.597Z,1.20
2022-10-22T06:31:44.524Z,1.30
2022-10-22T06:32:44.458Z,2.40
2022-10-22T06:33:44.424Z,1.60
2022-10-22T06:34:44.373Z,2.00
2022-10-22T06:35:44.311Z,1.90
2022-10-22T06:36:44.279Z,1.30
2022-10-22T06:37:44.236Z,1.70
2022-10-22T06:38:44.280Z,1.40
2022-10-22T06:39:44.128Z,1.10
2022-10-22T06:40:44.081Z,1.50
2022-10-22T06:41:44.047Z,1.20
2022-10-22T06:42:44.049Z,1.50
2022-10-22T06:43:43.967Z,1.40
2022-10-22T06:44:43.898Z,1.80
2022-10-22T06:45:43.899Z,1.60
2022-10-22T06:46:43.834Z,1.30
2022-10-22T06:47:43.976Z,3.30
2022-10-22T06:48:43.728Z,3.00
2022-10-22T06:49:43.651Z,2.00
2022-10-22T06:50:43.595Z,3.40
2022-10-22T06:51:43.565Z,4.10
2022-10-22T06:52:43.495Z,6.00
2022-10-22T06:53:43.459Z,6.20
2022-10-22T06:54:43.403Z,6.00
2022-10-22T06:55:43.347Z,4.60
2022-10-22T06:56:43.319Z,10.10
2022-10-22T06:57:43.660Z,9.80
2022-10-22T06:58:43.189Z,7.50
2022-10-22T06:59:43.136Z,9.50
2022-10-22T07:00:43.097Z,8.50
2022-10-22T07:01:43.102Z,9.20
2022-10-22T07:02:43.458Z,5.00
2022-10-22T07:03:42.969Z,7.10
2022-10-22T07:04:42.921Z,6.00
2022-10-22T07:05:42.881Z,5.70
2022-10-22T07:06:42.835Z,6.90
2022-10-22T07:07:42.772Z,11.70
2022-10-22T07:08:42.805Z,7.00
2022-10-22T07:09:42.726Z,5.70
2022-10-22T07:10:42.644Z,4.80
2022-10-22T07:11:42.605Z,4.40
2022-10-22T07:12:43.567Z,6.30
2022-10-22T07:13:42.488Z,6.50
2022-10-22T07:14:42.431Z,5.30
2022-10-22T07:15:42.394Z,6.90
2022-10-22T07:16:42.447Z,7.10
2022-10-22T07:17:42.307Z,4.20
2022-10-22T07:18:42.299Z,9.60
2022-10-22T07:19:42.222Z,2.70
2022-10-22T07:20:42.158Z,6.50
2022-10-22T07:21:42.128Z,7.70
2022-10-22T07:22:42.648Z,2.90
2022-10-22T07:23:42.015Z,5.40
2022-10-22T07:24:41.983Z,6.00
2022-10-22T07:25:41.916Z,2.30
2022-10-22T07:26:41.873Z,4.10
2022-10-22T07:27:42.263Z,3.60
2022-10-22T07:28:41.790Z,2.90
2022-10-22T07:29:41.736Z,5.10
2022-10-22T07:30:41.690Z,3.50
2022-10-22T07:31:41.672Z,6.20
2022-10-22T07:32:41.630Z,5.20
2022-10-22T07:33:41.564Z,7.90
2022-10-22T07:34:43.140Z,8.90
2022-10-22T07:35:41.501Z,8.70
2022-10-22T07:36:41.466Z,14.20
2022-10-22T07:37:41.797Z,6.20
2022-10-22T07:38:41.364Z,10.40
2022-10-22T07:39:41.335Z,5.20
2022-10-22T07:40:41.274Z,9.00
2022-10-22T07:41:41.254Z,16.80
2022-10-22T07:42:41.205Z,5.40
2022-10-22T07:43:41.165Z,11.80
2022-10-22T07:44:41.109Z,7.00
2022-10-22T07:45:41.094Z,8.10
2022-10-22T07:46:41.590Z,10.10
2022-10-22T07:47:41.224Z,8.80
2022-10-22T07:48:40.979Z,14.50
2022-10-22T07:49:40.945Z,8.20
2022-10-22T07:50:40.930Z,20.00
2022-10-22T07:51:40.847Z,5.90
2022-10-22T07:52:40.996Z,6.30
2022-10-22T07:53:40.780Z,4.80
2022-10-22T07:54:40.746Z,4.70
2022-10-22T07:55:40.670Z,8.00
2022-10-22T07:56:40.635Z,5.10
2022-10-22T07:57:40.604Z,6.50
2022-10-22T07:58:40.535Z,3.90
2022-10-22T07:59:40.516Z,3.40
2022-10-22T08:00:40.470Z,5.50
2022-10-22T08:01:40.473Z,4.80
2022-10-22T08:02:40.630Z,4.10
2022-10-22T08:03:40.345Z,8.20
2022-10-22T08:04:40.281Z,8.30
2022-10-22T08:05:40.260Z,4.10
2022-10-22T08:06:42.520Z,9.50
2022-10-22T08:07:40.183Z,5.40
2022-10-22T08:08:40.167Z,2.60
2022-10-22T08:09:40.115Z,5.50
2022-10-22T08:10:40.045Z,4.50
2022-10-22T08:11:40.028Z,5.50
2022-10-22T08:12:40.278Z,7.40
2022-10-22T08:13:44.900Z,5.30
2022-10-22T08:14:40.476Z,8.00
2022-10-22T08:15:39.893Z,2.10
2022-10-22T08:16:39.827Z,6.40
2022-10-22T08:17:40.323Z,3.40
2022-10-22T08:18:39.726Z,6.10
2022-10-22T08:19:39.706Z,3.20
2022-10-22T08:20:39.652Z,3.40
2022-10-22T08:21:39.623Z,10.50
2022-10-22T08:22:39.553Z,3.50
2022-10-22T08:23:40.222Z,7.80
2022-10-22T08:24:39.479Z,6.90
2022-10-22T08:25:39.411Z,11.20
2022-10-22T08:26:39.367Z,6.80
2022-10-22T08:27:39.799Z,3.70
2022-10-22T08:28:39.317Z,3.80
2022-10-22T08:29:39.241Z,10.90
2022-10-22T08:30:39.184Z,6.60
2022-10-22T08:31:39.130Z,3.70
2022-10-22T08:32:39.101Z,5.70
2022-10-22T08:33:39.142Z,3.90
2022-10-22T08:34:38.992Z,4.00
2022-10-22T08:35:38.947Z,3.50
2022-10-22T08:36:38.894Z,5.70
2022-10-22T08:37:39.244Z,4.30
2022-10-22T08:38:39.197Z,4.10
2022-10-22T08:39:38.800Z,3.20
2022-10-22T08:40:39.041Z,5.10
2022-10-22T08:41:38.671Z,2.90
2022-10-22T08:42:38.981Z,7.00
2022-10-22T08:43:38.572Z,6.40
2022-10-22T08:44:39.230Z,3.90
2022-10-22T08:45:38.612Z,3.40
2022-10-22T08:46:38.446Z,4.50
2022-10-22T08:47:38.393Z,5.60
2022-10-22T08:48:38.345Z,3.90
2022-10-22T08:49:41.218Z,4.50
2022-10-22T08:50:38.262Z,2.60
2022-10-22T08:51:38.243Z,3.40
2022-10-22T08:52:38.397Z,5.20
2022-10-22T08:53:38.163Z,3.00
2022-10-22T08:54:39.191Z,3.40
2022-10-22T08:55:38.066Z,3.50
2022-10-22T08:56:38.041Z,11.40
2022-10-22T08:57:37.986Z,2.80
2022-10-22T08:58:37.938Z,3.10
2022-10-22T08:59:37.910Z,2.40
2022-10-22T09:00:38.799Z,2.80
2022-10-22T09:01:37.838Z,6.90
2022-10-22T09:02:37.790Z,2.50
2022-10-22T09:03:37.760Z,5.60
2022-10-22T09:04:37.709Z,3.00
2022-10-22T09:05:37.704Z,4.20
2022-10-22T09:06:37.640Z,5.30
2022-10-22T09:07:37.632Z,3.40
2022-10-22T09:08:37.642Z,3.90
2022-10-22T09:09:37.529Z,2.60
2022-10-22T09:10:37.466Z,4.70
2022-10-22T09:11:37.438Z,3.20
2022-10-22T09:12:37.381Z,5.50
2022-10-22T09:13:37.391Z,7.20
2022-10-22T09:14:37.297Z,9.60
2022-10-22T09:15:37.254Z,4.90
2022-10-22T09:16:37.213Z,6.50
2022-10-22T09:17:37.220Z,4.10
2022-10-22T09:18:38.273Z,3.20
2022-10-22T09:19:37.094Z,11.50
2022-10-22T09:20:37.050Z,11.60
2022-10-22T09:21:36.983Z,19.00
2022-10-22T09:22:36.949Z,5.40
2022-10-22T09:23:36.903Z,10.00
2022-10-22T09:24:36.873Z,6.60
2022-10-22T09:25:36.811Z,12.20
2022-10-22T09:26:36.766Z,6.10
2022-10-22T09:27:36.697Z,8.30
2022-10-22T09:28:36.675Z,10.20
2022-10-22T09:29:36.731Z,6.80
2022-10-22T09:30:37.364Z,6.70
2022-10-22T09:31:36.529Z,11.30
2022-10-22T09:32:36.489Z,8.60
2022-10-22T09:33:36.460Z,5.10
2022-10-22T09:34:36.421Z,7.00
2022-10-22T09:35:36.373Z,6.60
2022-10-22T09:36:36.306Z,5.30
2022-10-22T09:37:36.271Z,6.20
2022-10-22T09:38:36.242Z,4.10
2022-10-22T09:39:36.169Z,6.60
2022-10-22T09:40:36.149Z,4.90
2022-10-22T09:41:36.812Z,2.90
2022-10-22T09:42:36.044Z,3.80
2022-10-22T09:43:36.027Z,7.10
2022-10-22T09:44:35.957Z,3.70
2022-10-22T09:45:35.922Z,4.20
2022-10-22T09:46:36.475Z,5.60
2022-10-22T09:48:00.567Z,5.50
2022-10-22T09:48:35.801Z,9.10
2022-10-22T09:49:35.699Z,6.90
2022-10-22T09:50:35.673Z,5.10
2022-10-22T09:51:35.643Z,6.30
2022-10-22T09:52:35.598Z,7.80
2022-10-22T09:53:35.844Z,12.60
2022-10-22T09:54:35.484Z,13.00
2022-10-22T09:55:35.439Z,8.90
2022-10-22T09:56:35.390Z,20.90
2022-10-22T09:57:38.727Z,6.50
2022-10-22T09:58:35.330Z,8.30
2022-10-22T09:59:35.247Z,6.00
2022-10-22T10:00:35.223Z,6.80
2022-10-22T10:01:35.156Z,7.80
2022-10-22T10:02:38.781Z,6.70
2022-10-22T10:03:35.091Z,5.90
2022-10-22T10:04:35.040Z,8.80
2022-10-22T10:05:35.006Z,10.60
2022-10-22T10:06:34.971Z,6.50
2022-10-22T10:07:34.900Z,11.30
2022-10-22T10:08:34.937Z,12.60
2022-10-22T10:09:34.844Z,7.50
2022-10-22T10:10:34.817Z,12.60
2022-10-22T10:11:34.766Z,13.20
2022-10-22T10:12:34.810Z,14.30
2022-10-22T10:13:34.678Z,5.10
2022-10-22T10:14:35.509Z,11.90
2022-10-22T10:15:34.592Z,18.10
2022-10-22T10:16:34.539Z,9.80
2022-10-22T10:17:34.518Z,10.00
2022-10-22T10:18:34.469Z,8.00
2022-10-22T10:19:34.411Z,11.40
2022-10-22T10:20:34.386Z,5.70
2022-10-22T10:21:34.334Z,10.80
2022-10-22T10:22:34.433Z,9.30
2022-10-22T10:23:34.307Z,6.60
2022-10-22T10:24:34.237Z,8.20
2022-10-22T10:25:34.186Z,7.50
2022-10-22T10:26:34.147Z,9.70
2022-10-22T10:27:34.084Z,8.00
2022-10-22T10:28:34.058Z,6.20
2022-10-22T10:29:34.008Z,11.10
2022-10-22T10:30:33.968Z,6.40
2022-10-22T10:31:33.931Z,9.80
2022-10-22T10:32:34.017Z,15.10
2022-10-22T10:33:33.849Z,13.80
2022-10-22T10:34:33.817Z,14.10
2022-10-22T10:35:33.902Z,20.90
2022-10-22T10:36:33.741Z,20.70
2022-10-22T10:37:34.062Z,16.40
2022-10-22T10:38:33.638Z,21.20
2022-10-22T10:39:33.650Z,15.70
2022-10-22T10:40:33.566Z,24.40
2022-10-22T10:41:33.509Z,13.80
2022-10-22T10:42:33.474Z,9.80
2022-10-22T10:43:33.444Z,12.10
2022-10-22T10:44:33.390Z,6.40
2022-10-22T10:45:33.355Z,12.60
2022-10-22T10:46:36.249Z,10.00
2022-10-22T10:47:33.263Z,10.60
2022-10-22T10:48:33.239Z,6.70
2022-10-22T10:49:33.182Z,7.40
2022-10-22T10:50:33.178Z,8.40
2022-10-22T10:51:33.113Z,9.70
2022-10-22T10:52:33.064Z,7.00
2022-10-22T10:53:33.030Z,13.50
2022-10-22T10:54:33.061Z,7.20
2022-10-22T10:55:32.958Z,5.80
2022-10-22T10:56:34.492Z,15.30
2022-10-22T10:57:32.870Z,7.50
2022-10-22T10:58:32.848Z,16.10
2022-10-22T10:59:32.775Z,11.50
2022-10-22T11:00:32.767Z,16.50
2022-10-22T11:01:33.105Z,15.90
2022-10-22T11:02:32.653Z,14.90
2022-10-22T11:03:32.618Z,17.20
2022-10-22T11:04:32.568Z,16.80
2022-10-22T11:05:32.533Z,19.60
2022-10-22T11:06:32.512Z,17.70
2022-10-22T11:07:34.553Z,25.00
2022-10-22T11:08:32.467Z,19.90
2022-10-22T11:09:32.979Z,21.70
2022-10-22T11:10:32.317Z,26.00
2022-10-22T11:11:32.279Z,22.10
2022-10-22T11:12:32.244Z,16.60
2022-10-22T11:13:32.182Z,12.20
2022-10-22T11:14:32.166Z,16.50
2022-10-22T11:15:32.136Z,12.90
2022-10-22T11:16:32.063Z,12.00
2022-10-22T11:17:32.056Z,12.10
2022-10-22T11:18:31.995Z,12.50
2022-10-22T11:19:50.315Z,13.80
2022-10-22T11:20:31.914Z,15.80
2022-10-22T11:21:31.848Z,13.10
2022-10-22T11:22:31.812Z,13.80
2022-10-22T11:23:31.778Z,18.30
2022-10-22T11:24:31.728Z,20.60
2022-10-22T11:25:33.087Z,13.20
2022-10-22T11:26:31.648Z,11.60
2022-10-22T11:27:31.592Z,15.40
2022-10-22T11:28:31.572Z,21.40
2022-10-22T11:29:32.965Z,16.10
2022-10-22T11:30:31.456Z,13.50
2022-10-22T11:31:32.128Z,12.30
2022-10-22T11:32:31.368Z,14.90
2022-10-22T11:33:31.325Z,13.50
2022-10-22T11:34:34.126Z,17.90
2022-10-22T11:35:31.227Z,12.10
2022-10-22T11:37:31.158Z,13.60
2022-10-22T11:38:32.842Z,20.70
2022-10-22T11:39:31.071Z,15.90
2022-10-22T11:40:31.437Z,16.50
2022-10-22T11:41:31.007Z,14.90
2022-10-22T11:42:30.976Z,10.10
2022-10-22T11:43:30.926Z,14.30
2022-10-22T11:44:30.899Z,11.70
2022-10-22T11:45:30.881Z,11.80
2022-10-22T11:46:30.962Z,8.70
2022-10-22T11:47:30.781Z,13.10
2022-10-22T11:48:30.763Z,8.50
2022-10-22T11:49:30.700Z,11.30
2022-10-22T11:50:30.646Z,8.60
2022-10-22T11:51:30.664Z,9.80
2022-10-22T11:52:30.596Z,8.80
2022-10-22T11:53:30.585Z,8.20
2022-10-22T11:54:30.551Z,14.90
2022-10-22T11:55:30.485Z,16.90
2022-10-22T11:56:31.308Z,9.60
2022-10-22T11:57:30.414Z,9.90
2022-10-22T11:58:30.382Z,8.70
2022-10-22T11:59:30.354Z,10.60
2022-10-22T12:00:30.320Z,11.10
2022-10-22T12:01:30.394Z,10.70
2022-10-22T12:02:30.221Z,8.40
2022-10-22T12:03:30.214Z,10.90
2022-10-22T12:04:30.161Z,9.60
2022-10-22T12:05:30.116Z,7.50
2022-10-22T12:06:30.378Z,10.00
2022-10-22T12:07:30.009Z,11.30
2022-10-22T12:08:29.972Z,7.00
2022-10-22T12:09:29.903Z,11.50
2022-10-22T12:10:29.861Z,9.30
2022-10-22T12:11:29.840Z,6.90
2022-10-22T12:12:29.770Z,7.60
2022-10-22T12:13:29.734Z,8.20
2022-10-22T12:14:29.702Z,9.60
2022-10-22T12:15:29.631Z,8.80
2022-10-22T12:16:37.714Z,7.70
2022-10-22T12:17:29.592Z,9.90
2022-10-22T12:18:29.526Z,7.10
2022-10-22T12:19:29.463Z,6.30
2022-10-22T12:20:29.432Z,8.90
2022-10-22T12:21:29.373Z,7.50
2022-10-22T12:22:29.329Z,5.90
2022-10-22T12:23:29.304Z,9.10
2022-10-22T12:24:29.240Z,9.50
2022-10-22T12:25:33.366Z,7.60
2022-10-22T12:27:29.096Z,7.10
2022-10-22T12:28:29.739Z,7.40
2022-10-22T12:29:28.985Z,5.60
2022-10-22T12:30:28.954Z,6.20
2022-10-22T12:31:28.911Z,6.60
2022-10-22T12:32:28.851Z,5.50
2022-10-22T12:33:28.816Z,10.70
2022-10-22T12:34:28.774Z,11.30
2022-10-22T12:35:28.719Z,6.40
2022-10-22T12:36:29.213Z,7.30
2022-10-22T12:37:28.624Z,6.00
2022-10-22T12:38:28.587Z,6.50
2022-10-22T12:39:28.589Z,6.70
2022-10-22T12:40:28.510Z,6.60
2022-10-22T12:41:28.477Z,5.60
2022-10-22T12:42:28.432Z,8.80
2022-10-22T12:43:28.374Z,6.30
2022-10-22T12:44:28.347Z,6.00
2022-10-22T12:45:28.290Z,7.10
2022-10-22T12:46:28.263Z,10.00
2022-10-22T12:47:28.213Z,9.00
2022-10-22T12:48:28.186Z,12.00
2022-10-22T12:49:28.120Z,6.70
2022-10-22T12:50:28.085Z,10.70
2022-10-22T12:51:28.109Z,11.50
2022-10-22T12:52:27.996Z,8.70
2022-10-22T12:53:27.956Z,5.00
2022-10-22T12:54:27.915Z,10.60
2022-10-22T12:55:27.843Z,6.80
2022-10-22T12:56:27.839Z,12.90
2022-10-22T12:57:27.775Z,8.30
2022-10-22T12:58:27.734Z,8.40
2022-10-22T12:59:27.711Z,9.10
2022-10-22T13:00:27.698Z,4.90
2022-10-22T13:01:27.615Z,6.70
2022-10-22T13:02:27.578Z,8.50
2022-10-22T13:03:27.525Z,6.50
2022-10-22T13:04:27.484Z,7.20
2022-10-22T13:05:27.450Z,14.20
2022-10-22T13:06:27.453Z,4.30
2022-10-22T13:07:27.353Z,7.20
2022-10-22T13:08:27.334Z,5.50
2022-10-22T13:09:27.883Z,6.10
2022-10-22T13:10:27.242Z,7.60
2022-10-22T13:11:27.198Z,5.80
2022-10-22T13:12:27.166Z,6.00
2022-10-22T13:13:27.115Z,11.30
2022-10-22T13:14:27.073Z,6.40
2022-10-22T13:15:27.001Z,6.80
2022-10-22T13:16:27.036Z,8.40
2022-10-22T13:17:26.927Z,5.50